Hauptseite
METAR-TAF:

METAR-TAF

Flughäfen :

Pontoise, Frankreich

Flugplatz Pontoise-Cormeilles

Breite: 49-05-48N, Länge: 002-02-27E, Höhe: 99 m

Beobachtung

Neuester Wetterbericht von vor 26 Minuten, um 11:00 UTC
Wind 18 kt aus Südwest
Temperatur 15°C
Luftfeuchtigkeit 72%
Luftdruck 1005 hPa
Sichtweite 10 km oder mehr
Leicht bewölkt in der Höhe von 2500 ft
Geschlossene Wolkendecke in der Höhe von 3800 ft

METAR: LFPT 231100Z AUTO 22018KT 9999 FEW025 OVC038 15/10 Q1005

Zeit: 12:26 (11:26 UTC)


TAF: fehlend

Wetterbeobachtungen und Prognosen von mehr als 4000 Flughäfen (METAR und TAF Bericht).

Die verfügbaren Stationen werden durch gelbe und rote Markierungen auf der Karte dargestellt.

Führen Sie die Maus auf sie, um den Namen der Station zu sehen.

Darauf klicken, um die Beobachtung von Wetterbeobachtungen und Prognosen zu sehen.

Um die Karte zu ändern : klicken Sie auf den grünen Tasten mit einem schwarzen Kreuz Zum Vergrößern, auf den grünen Button mit einem Gedankenstrich zu verkleinern, oder auf die grünen Pfeile für benachbarte Karten.


METAR-TAF: